Time;durP1;ratioP1;P1;durP2;ratioP2;P2;SDS_P1;SDS_P2;PMS_P1;PMS_P2;Temp;Humidity;BMP_temperature;BMP_pressure;BME280_temperature;BME280_humidity;BME280_pressure;Samples;Min_cycle;Max_cycle;Signal;HPM_P1;HPM_P2
2021/03/25 00:01:19;;;;;;;2.30;1.50;;;9.00;99.90;;;;;;4887968;29;20239;-92
2021/03/25 00:03:52;;;;;;;1.73;1.10;;;9.00;99.90;;;;;;4886287;29;20302;-93
2021/03/25 00:06:26;;;;;;;1.33;1.10;;;9.00;99.90;;;;;;4885322;29;20205;-93
2021/03/25 00:08:59;;;;;;;2.10;0.97;;;8.90;99.90;;;;;;4884553;29;20245;-93
2021/03/25 00:11:30;;;;;;;1.57;1.23;;;8.90;99.90;;;;;;4886913;29;20211;-93
2021/03/25 00:14:00;;;;;;;1.50;1.30;;;8.90;99.90;;;;;;4887620;29;20268;-92
2021/03/25 00:16:31;;;;;;;2.37;1.43;;;8.80;99.90;;;;;;4888018;29;20719;-92
2021/03/25 00:19:05;;;;;;;4.10;1.57;;;8.80;99.90;;;;;;4886964;29;20243;-92
2021/03/25 00:21:41;;;;;;;3.20;1.60;;;8.70;99.90;;;;;;4907669;29;20213;-93
2021/03/25 00:24:16;;;;;;;13.33;1.77;;;8.80;99.90;;;;;;4904261;29;20626;-93
2021/03/25 00:26:47;;;;;;;7.90;1.90;;;8.70;99.90;;;;;;4903965;29;20733;-94
2021/03/25 00:29:18;;;;;;;11.73;1.80;;;8.70;99.90;;;;;;4912387;29;20234;-93
2021/03/25 00:31:49;;;;;;;3.60;2.30;;;8.60;99.90;;;;;;4917185;29;20217;-89
2021/03/25 00:34:20;;;;;;;4.87;2.10;;;8.50;99.90;;;;;;4919959;29;20246;-91
2021/03/25 00:36:52;;;;;;;2.90;1.53;;;8.40;99.90;;;;;;4921575;29;20622;-92
2021/03/25 00:39:23;;;;;;;2.33;1.43;;;8.40;99.90;;;;;;4920279;29;20205;-89
2021/03/25 00:41:57;;;;;;;5.27;1.70;;;8.40;99.90;;;;;;4918010;29;20312;-88
2021/03/25 00:44:28;;;;;;;7.07;1.70;;;8.40;99.90;;;;;;4910098;29;20232;-91
2021/03/25 00:47:00;;;;;;;6.03;1.60;;;8.50;99.90;;;;;;4906992;29;20231;-92
2021/03/25 00:49:31;;;;;;;3.03;1.07;;;8.50;99.90;;;;;;4911372;29;20241;-92
2021/03/25 00:52:04;;;;;;;7.63;1.23;;;8.60;99.90;;;;;;4910022;29;20281;-92
2021/03/25 00:54:39;;;;;;;0.93;0.87;;;8.60;99.90;;;;;;4908166;29;20325;-93
2021/03/25 00:57:09;;;;;;;1.10;1.00;;;8.60;99.90;;;;;;4905321;29;20626;-92
2021/03/25 00:59:39;;;;;;;1.37;1.27;;;8.50;99.90;;;;;;4903690;29;20233;-92
2021/03/25 01:02:10;;;;;;;3.10;1.53;;;8.30;99.90;;;;;;4905269;29;20696;-92
2021/03/25 01:04:40;;;;;;;4.27;2.90;;;8.10;99.90;;;;;;4902363;29;20237;-92
2021/03/25 01:07:23;;;;;;;3.43;3.13;;;8.10;99.90;;;;;;4902753;29;20239;-91
2021/03/25 01:09:54;;;;;;;1.70;1.60;;;8.20;99.90;;;;;;4902729;29;20223;-94
2021/03/25 01:12:25;;;;;;;1.80;1.70;;;8.10;99.90;;;;;;4904611;29;20655;-92
2021/03/25 01:14:56;;;;;;;1.30;0.80;;;8.00;99.90;;;;;;4903253;29;20233;-93
2021/03/25 01:17:28;;;;;;;0.60;0.60;;;8.10;99.90;;;;;;4902930;29;20227;-94
2021/03/25 01:19:59;;;;;;;0.70;0.60;;;7.90;99.90;;;;;;4902183;29;20269;-93
2021/03/25 01:22:32;;;;;;;0.60;0.60;;;7.80;99.90;;;;;;4902983;29;20241;-94
2021/03/25 01:25:07;;;;;;;1.40;1.20;;;7.80;99.90;;;;;;4902671;29;20212;-93
2021/03/25 01:27:38;;;;;;;2.47;2.20;;;7.90;99.90;;;;;;4901288;29;20283;-93
2021/03/25 01:30:11;;;;;;;2.00;1.80;;;7.90;99.90;;;;;;4901931;29;20229;-92
2021/03/25 01:32:42;;;;;;;3.43;2.57;;;8.00;99.90;;;;;;4902884;29;20677;-92
2021/03/25 01:35:14;;;;;;;1.60;1.20;;;8.10;99.90;;;;;;4902926;29;20236;-94
2021/03/25 01:37:49;;;;;;;4.27;3.33;;;8.00;99.90;;;;;;4901596;29;20212;-93
2021/03/25 01:40:23;;;;;;;2.00;1.80;;;7.80;99.90;;;;;;4905043;29;20693;-92
2021/03/25 01:43:08;;;;;;;2.30;1.70;;;7.70;99.90;;;;;;4906502;29;20239;-92
2021/03/25 01:46:06;;;;;;;1.20;1.00;;;7.80;99.90;;;;;;4904156;29;20253;-91
2021/03/25 01:48:40;;;;;;;0.87;0.67;;;7.70;99.90;;;;;;4903689;29;20247;-92
2021/03/25 01:51:20;;;;;;;1.63;0.83;;;7.60;99.90;;;;;;4906951;29;20273;-91
2021/03/25 01:54:27;;;;;;;0.60;0.60;;;7.60;99.90;;;;;;4908729;29;20208;-92
2021/03/25 01:57:14;;;;;;;0.50;0.50;;;7.70;99.90;;;;;;4910391;29;20227;-92
2021/03/25 02:00:13;;;;;;;0.57;0.30;;;7.80;99.90;;;;;;4910875;29;20215;-91
2021/03/25 02:02:51;;;;;;;1.10;0.50;;;7.90;99.90;;;;;;4905721;29;20379;-92
2021/03/25 02:05:26;;;;;;;0.67;0.57;;;7.90;99.90;;;;;;4903905;29;20209;-92
2021/03/25 02:08:18;;;;;;;1.10;0.77;;;7.80;99.90;;;;;;4904244;29;20209;-92
2021/03/25 02:11:00;;;;;;;0.60;0.57;;;7.70;99.90;;;;;;4917591;29;20223;-93
2021/03/25 02:13:37;;;;;;;0.90;0.90;;;7.60;99.90;;;;;;4920646;29;20209;-93
2021/03/25 02:16:10;;;;;;;1.00;1.00;;;7.40;99.90;;;;;;4917790;29;20250;-91
2021/03/25 02:18:48;;;;;;;2.17;1.23;;;7.40;99.90;;;;;;4914258;29;20230;-93
2021/03/25 02:21:48;;;;;;;0.70;0.70;;;7.40;99.90;;;;;;4908619;29;20684;-92
2021/03/25 02:24:33;;;;;;;2.77;1.10;;;7.30;99.90;;;;;;4904287;29;20226;-92
2021/03/25 02:27:29;;;;;;;1.50;1.40;;;7.30;99.90;;;;;;4915679;29;20212;-93
2021/03/25 02:30:04;;;;;;;1.40;1.27;;;7.30;99.90;;;;;;4910354;29;20246;-93
2021/03/25 02:32:41;;;;;;;1.70;1.30;;;7.30;99.90;;;;;;4910589;29;20281;-93
2021/03/25 02:35:21;;;;;;;3.47;1.70;;;7.40;99.90;;;;;;4915673;29;20213;-93
2021/03/25 02:37:56;;;;;;;3.57;1.43;;;7.40;99.90;;;;;;4920192;29;20199;-94
2021/03/25 02:40:33;;;;;;;8.83;4.40;;;7.40;99.90;;;;;;4919920;29;20245;-92
2021/03/25 02:43:09;;;;;;;5.67;3.50;;;7.40;99.90;;;;;;4919097;29;20289;-93
2021/03/25 02:45:46;;;;;;;3.00;2.17;;;7.40;99.90;;;;;;4915456;29;20213;-93
2021/03/25 02:48:23;;;;;;;3.17;1.00;;;7.50;99.90;;;;;;4901023;29;20209;-93
2021/03/25 02:51:02;;;;;;;3.63;1.20;;;7.60;99.90;;;;;;4901348;29;20212;-92
2021/03/25 02:53:37;;;;;;;3.13;0.90;;;7.50;99.90;;;;;;4900342;29;20213;-92
2021/03/25 02:56:13;;;;;;;3.77;1.10;;;7.50;99.90;;;;;;4901015;29;20617;-93
2021/03/25 02:58:46;;;;;;;0.80;0.60;;;7.50;99.90;;;;;;4900559;29;20277;-92
2021/03/25 03:01:20;;;;;;;2.70;1.10;;;7.50;99.90;;;;;;4904178;29;20215;-93
2021/03/25 03:04:07;;;;;;;3.33;1.10;;;7.50;99.90;;;;;;4901367;29;20343;-92
2021/03/25 03:06:42;;;;;;;4.90;1.40;;;7.50;99.90;;;;;;4905837;29;20221;-93
2021/03/25 03:09:17;;;;;;;2.60;1.10;;;7.50;99.90;;;;;;4900772;29;20303;-92
2021/03/25 03:11:52;;;;;;;6.07;1.50;;;7.60;99.90;;;;;;4904651;29;20216;-93
2021/03/25 03:14:32;;;;;;;5.67;1.30;;;7.50;99.90;;;;;;4902564;29;20209;-93
2021/03/25 03:17:07;;;;;;;3.20;1.20;;;7.50;99.90;;;;;;4901433;29;20283;-92
2021/03/25 03:19:48;;;;;;;6.77;1.30;;;7.50;99.90;;;;;;4902215;29;20213;-93
2021/03/25 03:22:19;;;;;;;4.07;1.40;;;7.50;99.90;;;;;;4902412;29;20213;-93
2021/03/25 03:24:52;;;;;;;3.47;1.80;;;7.50;99.90;;;;;;4906307;29;20210;-92
2021/03/25 03:27:31;;;;;;;3.40;1.70;;;7.50;99.90;;;;;;4913906;29;20226;-88
2021/03/25 03:30:11;;;;;;;4.27;1.50;;;7.60;99.90;;;;;;4921997;29;20220;-90
2021/03/25 03:32:52;;;;;;;4.37;2.00;;;7.60;99.90;;;;;;4922075;29;20224;-89
2021/03/25 03:35:28;;;;;;;4.60;2.10;;;7.60;99.90;;;;;;4922722;29;20279;-89
2021/03/25 03:38:06;;;;;;;3.27;1.77;;;7.60;99.90;;;;;;4916732;29;20216;-96
2021/03/25 03:40:40;;;;;;;4.63;1.73;;;7.70;99.90;;;;;;4910285;29;20220;-91
2021/03/25 03:43:15;;;;;;;6.87;2.80;;;7.60;99.90;;;;;;4905460;29;20236;-92
2021/03/25 03:45:54;;;;;;;5.90;2.30;;;7.60;99.90;;;;;;4910174;29;20230;-92
2021/03/25 03:48:30;;;;;;;6.00;2.20;;;7.70;99.90;;;;;;4909768;29;20244;-93
2021/03/25 03:51:06;;;;;;;3.97;2.03;;;7.70;99.90;;;;;;4908030;29;20220;-90
2021/03/25 03:53:39;;;;;;;2.73;1.97;;;7.60;99.90;;;;;;4908150;29;20225;-93
2021/03/25 03:56:18;;;;;;;6.17;2.17;;;7.60;99.90;;;;;;4911476;29;20212;-93
2021/03/25 03:58:55;;;;;;;4.33;1.77;;;7.60;99.90;;;;;;4910997;29;20267;-92
2021/03/25 04:01:38;;;;;;;3.20;1.73;;;7.60;99.90;;;;;;4911376;29;20249;-91
2021/03/25 04:04:15;;;;;;;4.57;2.20;;;7.60;99.90;;;;;;4910093;29;20237;-93
2021/03/25 04:06:52;;;;;;;5.47;2.57;;;7.60;99.90;;;;;;4907446;29;20245;-93
2021/03/25 04:09:35;;;;;;;3.90;1.47;;;7.60;99.90;;;;;;4905670;29;20242;-93
2021/03/25 04:12:13;;;;;;;2.70;1.90;;;7.60;99.90;;;;;;4905557;29;20208;-92
2021/03/25 04:14:48;;;;;;;2.50;1.40;;;7.50;99.90;;;;;;4904634;29;20213;-92
2021/03/25 04:17:25;;;;;;;2.97;1.80;;;7.60;99.90;;;;;;4905764;29;20269;-93
2021/03/25 04:20:00;;;;;;;2.10;1.47;;;7.60;99.90;;;;;;4903540;29;20218;-93
2021/03/25 04:22:39;;;;;;;3.13;1.43;;;7.50;99.90;;;;;;4912563;29;20213;-91
2021/03/25 04:25:16;;;;;;;3.70;1.67;;;7.60;99.90;;;;;;4911374;29;20237;-90
2021/03/25 04:27:51;;;;;;;2.13;1.70;;;7.50;99.90;;;;;;4911226;29;20213;-92
2021/03/25 04:30:27;;;;;;;2.87;1.47;;;7.50;99.90;;;;;;4887746;29;20209;-92
2021/03/25 04:33:00;;;;;;;2.83;1.60;;;7.40;99.90;;;;;;4907400;29;20216;-92
2021/03/25 04:35:32;;;;;;;8.50;1.67;;;7.50;99.90;;;;;;4922221;29;20201;-92
2021/03/25 04:38:06;;;;;;;3.87;1.40;;;7.50;99.90;;;;;;4918864;29;20305;-94
2021/03/25 04:40:42;;;;;;;4.93;1.93;;;7.50;99.90;;;;;;4907397;29;20268;-93
2021/03/25 04:43:20;;;;;;;3.60;1.70;;;7.40;99.90;;;;;;4907908;29;20236;-93
2021/03/25 04:45:57;;;;;;;3.47;1.90;;;7.40;99.90;;;;;;4906559;29;20249;-93
2021/03/25 04:48:34;;;;;;;2.27;1.63;;;7.50;99.90;;;;;;4906916;29;20212;-92
2021/03/25 04:51:13;;;;;;;5.00;2.20;;;7.50;99.90;;;;;;4906250;29;20245;-94
2021/03/25 04:53:47;;;;;;;3.27;1.50;;;7.40;99.90;;;;;;4905141;29;20213;-93
2021/03/25 04:56:21;;;;;;;4.77;2.00;;;7.40;99.90;;;;;;4904530;29;20224;-93
2021/03/25 04:58:58;;;;;;;4.97;2.10;;;7.40;99.90;;;;;;4907200;29;20315;-93
2021/03/25 05:01:37;;;;;;;3.27;1.80;;;7.30;99.90;;;;;;4903928;29;20205;-93
2021/03/25 05:04:16;;;;;;;2.20;2.00;;;7.30;99.90;;;;;;4904782;29;20232;-91
2021/03/25 05:06:57;;;;;;;5.20;2.23;;;7.30;99.90;;;;;;4905038;29;20209;-92
2021/03/25 05:09:31;;;;;;;3.40;2.27;;;7.30;99.90;;;;;;4906966;29;20242;-92
2021/03/25 05:12:09;;;;;;;2.90;1.80;;;7.30;99.90;;;;;;4906811;29;20216;-91
2021/03/25 05:14:40;;;;;;;4.60;2.13;;;7.30;99.90;;;;;;4908700;29;20215;-91
2021/03/25 05:17:32;;;;;;;2.87;2.07;;;7.30;99.90;;;;;;4903678;29;20662;-92
2021/03/25 05:20:16;;;;;;;2.40;1.90;;;7.30;99.90;;;;;;4903448;29;20217;-92
2021/03/25 05:23:00;;;;;;;5.33;2.17;;;7.20;99.90;;;;;;4903143;29;20674;-92
2021/03/25 05:25:38;;;;;;;2.40;1.90;;;7.20;99.90;;;;;;4901776;29;20319;-92
2021/03/25 05:28:17;;;;;;;5.30;2.47;;;7.20;99.90;;;;;;4902353;29;20209;-92
2021/03/25 05:30:54;;;;;;;3.70;2.43;;;7.20;99.90;;;;;;4902821;29;20294;-92
2021/03/25 05:33:28;;;;;;;5.40;2.30;;;7.10;99.90;;;;;;4903050;29;20209;-93
2021/03/25 05:36:05;;;;;;;3.50;2.70;;;7.20;99.90;;;;;;4902045;29;20296;-93
2021/03/25 05:38:36;;;;;;;6.67;2.83;;;7.20;99.90;;;;;;4901570;29;20704;-91
2021/03/25 05:41:23;;;;;;;5.87;2.97;;;7.30;99.90;;;;;;4902245;29;20214;-92
2021/03/25 05:44:25;;;;;;;3.70;2.87;;;7.30;99.90;;;;;;4903327;29;20264;-93
2021/03/25 05:47:06;;;;;;;3.30;3.00;;;7.30;99.90;;;;;;4903393;29;20219;-92
2021/03/25 05:49:43;;;;;;;5.43;3.13;;;7.20;99.90;;;;;;4901856;29;20221;-93
2021/03/25 05:52:36;;;;;;;3.77;3.23;;;7.20;99.90;;;;;;4904593;29;20650;-92
2021/03/25 05:55:21;;;;;;;4.97;3.90;;;7.20;99.90;;;;;;4906842;29;20217;-92
2021/03/25 05:58:12;;;;;;;4.63;4.20;;;7.30;99.90;;;;;;4909404;29;20213;-94
2021/03/25 06:00:55;;;;;;;4.80;4.30;;;7.30;99.90;;;;;;4914407;29;20196;-93
2021/03/25 06:03:28;;;;;;;4.97;3.77;;;7.30;99.90;;;;;;4908998;29;20301;-93
2021/03/25 06:06:03;;;;;;;3.90;3.30;;;7.30;99.90;;;;;;4909189;29;20212;-92
2021/03/25 06:08:47;;;;;;;3.77;3.47;;;7.30;99.90;;;;;;4907341;29;20277;-93
2021/03/25 06:11:44;;;;;;;4.20;3.23;;;7.30;99.90;;;;;;4909386;29;20194;-92
2021/03/25 06:14:32;;;;;;;4.80;3.33;;;7.30;99.90;;;;;;4905217;29;20278;-92
2021/03/25 06:17:20;;;;;;;5.03;3.17;;;7.30;99.90;;;;;;4904727;29;20239;-91
2021/03/25 06:20:10;;;;;;;5.67;2.80;;;7.20;99.90;;;;;;4908305;29;20266;-90
2021/03/25 06:23:00;;;;;;;4.93;2.87;;;7.10;99.90;;;;;;4918813;29;20213;-88
2021/03/25 06:25:55;;;;;;;5.30;2.60;;;7.10;99.90;;;;;;4916439;29;20218;-89
2021/03/25 06:28:36;;;;;;;5.77;2.70;;;7.20;99.90;;;;;;4918925;29;20221;-90
2021/03/25 06:31:50;;;;;;;3.10;2.60;;;7.20;99.90;;;;;;4913036;29;20205;-92
2021/03/25 06:34:29;;;;;;;4.73;2.80;;;7.20;99.90;;;;;;4907521;29;20304;-92
2021/03/25 06:37:15;;;;;;;4.87;2.70;;;7.20;99.90;;;;;;4905938;29;20251;-92
2021/03/25 06:39:54;;;;;;;4.67;2.90;;;7.20;99.90;;;;;;4903820;29;20752;-91
2021/03/25 06:42:31;;;;;;;2.90;2.57;;;7.20;99.90;;;;;;4902159;29;20233;-93
2021/03/25 06:45:22;;;;;;;3.57;2.83;;;7.10;99.90;;;;;;4904568;29;20217;-94
2021/03/25 06:48:03;;;;;;;4.60;3.03;;;7.20;99.90;;;;;;4907244;29;20222;-92
2021/03/25 06:50:50;;;;;;;5.03;2.80;;;7.20;99.90;;;;;;4907888;29;20268;-94
2021/03/25 06:53:25;;;;;;;3.80;2.37;;;7.10;99.90;;;;;;4902050;29;20302;-93
2021/03/25 06:56:00;;;;;;;4.50;2.70;;;7.10;99.90;;;;;;4902017;29;20213;-93
2021/03/25 06:58:34;;;;;;;3.50;2.80;;;7.10;99.90;;;;;;4892214;29;20216;-92
2021/03/25 07:01:08;;;;;;;4.30;2.80;;;7.00;99.90;;;;;;4886259;29;20580;-94
2021/03/25 07:03:40;;;;;;;3.57;2.73;;;7.00;99.90;;;;;;4884376;29;20320;-93
2021/03/25 07:06:16;;;;;;;3.97;2.63;;;7.00;99.90;;;;;;4889425;29;20746;-94
2021/03/25 07:08:48;;;;;;;6.57;2.53;;;7.00;99.90;;;;;;4887527;29;20647;-92
2021/03/25 07:11:20;;;;;;;5.27;2.87;;;7.00;99.90;;;;;;4886615;29;20224;-92
2021/03/25 07:13:58;;;;;;;3.67;2.73;;;7.00;99.90;;;;;;4891638;29;20564;-91
2021/03/25 07:16:31;;;;;;;4.80;3.07;;;7.00;99.90;;;;;;4885413;29;20725;-92
2021/03/25 07:19:07;;;;;;;5.07;2.70;;;7.00;99.90;;;;;;4886904;29;20217;-91
2021/03/25 07:21:44;;;;;;;4.13;3.03;;;7.10;99.90;;;;;;4887915;29;20284;-91
2021/03/25 07:24:32;;;;;;;2.83;2.30;;;7.20;99.90;;;;;;4886437;29;20669;-92
2021/03/25 07:27:09;;;;;;;3.40;2.73;;;7.20;99.90;;;;;;4886046;29;20268;-92
2021/03/25 07:29:42;;;;;;;3.83;2.40;;;7.20;99.90;;;;;;4883690;29;20289;-92
2021/03/25 07:32:34;;;;;;;2.77;2.57;;;7.00;99.90;;;;;;4885682;29;20228;-91
2021/03/25 07:35:25;;;;;;;4.47;2.80;;;6.80;99.90;;;;;;4887956;29;20273;-92
2021/03/25 07:38:03;;;;;;;2.90;2.60;;;6.80;99.90;;;;;;4886045;29;20210;-93
2021/03/25 07:40:37;;;;;;;3.83;2.77;;;6.80;99.90;;;;;;4885736;29;20698;-93
2021/03/25 07:43:23;;;;;;;3.97;2.67;;;6.90;99.90;;;;;;4885875;29;20298;-93
2021/03/25 07:46:18;;;;;;;6.63;2.90;;;6.80;99.90;;;;;;4885950;29;20214;-93
2021/03/25 07:49:17;;;;;;;4.03;3.10;;;6.80;99.90;;;;;;4884884;29;20290;-92
2021/03/25 07:51:51;;;;;;;4.27;3.33;;;6.90;99.90;;;;;;4889223;29;20312;-93
2021/03/25 07:54:31;;;;;;;4.00;2.70;;;7.00;99.90;;;;;;4912837;29;20216;-93
2021/03/25 07:57:09;;;;;;;5.17;3.00;;;7.10;99.90;;;;;;4911395;29;20663;-93
2021/03/25 07:59:43;;;;;;;5.40;4.07;;;7.00;99.90;;;;;;4908115;29;20233;-93
2021/03/25 08:02:33;;;;;;;8.73;5.90;;;6.90;99.90;;;;;;4907081;29;20217;-93
2021/03/25 08:05:29;;;;;;;7.73;6.50;;;6.80;99.90;;;;;;4919049;29;20297;-93
2021/03/25 08:08:01;;;;;;;6.87;5.63;;;6.70;99.90;;;;;;4923172;29;20240;-95
2021/03/25 08:10:37;;;;;;;8.10;5.63;;;6.60;99.90;;;;;;4923692;29;20212;-91
2021/03/25 08:13:19;;;;;;;6.00;5.37;;;6.60;99.90;;;;;;4922220;29;20224;-92
2021/03/25 08:15:53;;;;;;;4.27;3.47;;;6.60;99.90;;;;;;4922927;29;20239;-92
2021/03/25 08:18:53;;;;;;;4.70;3.63;;;6.50;99.90;;;;;;4920705;29;20224;-92
2021/03/25 08:21:41;;;;;;;3.70;3.27;;;6.50;99.90;;;;;;4899051;29;20280;-92
2021/03/25 08:24:41;;;;;;;3.53;2.60;;;6.50;99.90;;;;;;4888392;29;20260;-91
2021/03/25 08:27:38;;;;;;;2.47;2.03;;;6.50;99.90;;;;;;4897189;29;20245;-92
2021/03/25 08:30:49;;;;;;;2.43;2.00;;;6.40;99.90;;;;;;4905207;29;20309;-92
2021/03/25 08:33:34;;;;;;;3.23;2.43;;;6.40;99.90;;;;;;4903897;29;20217;-93
2021/03/25 08:36:15;;;;;;;5.33;2.60;;;6.30;99.90;;;;;;4902768;29;20220;-93
2021/03/25 08:39:07;;;;;;;2.67;2.13;;;6.30;99.90;;;;;;4903633;29;20225;-93
2021/03/25 08:41:43;;;;;;;2.50;2.27;;;6.30;99.90;;;;;;4905852;29;20241;-93
2021/03/25 08:44:24;;;;;;;2.47;2.27;;;6.30;99.90;;;;;;4903404;29;20233;-93
2021/03/25 08:46:59;;;;;;;3.27;2.50;;;6.20;99.90;;;;;;4905196;29;20194;-93
2021/03/25 08:49:39;;;;;;;2.87;2.00;;;6.30;99.90;;;;;;4905468;29;20364;-92
2021/03/25 08:52:16;;;;;;;7.33;2.73;;;6.30;99.90;;;;;;4903496;29;20573;-93
2021/03/25 08:54:51;;;;;;;2.60;1.83;;;6.30;99.90;;;;;;4903739;29;20209;-93
2021/03/25 08:57:28;;;;;;;0.67;0.60;;;6.30;99.90;;;;;;4904768;29;20205;-93
2021/03/25 09:00:10;;;;;;;1.20;1.03;;;6.10;99.90;;;;;;4904384;29;20309;-93
2021/03/25 09:02:45;;;;;;;2.33;1.20;;;6.10;99.90;;;;;;4911905;29;20213;-92
2021/03/25 09:05:23;;;;;;;3.30;1.10;;;6.10;99.90;;;;;;4902630;29;20249;-92
2021/03/25 09:07:56;;;;;;;3.80;1.13;;;6.20;99.90;;;;;;4904879;29;20220;-92
2021/03/25 09:10:46;;;;;;;1.20;1.10;;;6.10;99.90;;;;;;4915302;29;20206;-92
2021/03/25 09:13:21;;;;;;;1.57;1.10;;;6.20;99.90;;;;;;4921947;29;20213;-89
2021/03/25 09:15:56;;;;;;;2.17;1.23;;;6.20;99.90;;;;;;4920150;29;20224;-89
2021/03/25 09:18:30;;;;;;;5.10;1.30;;;6.20;99.90;;;;;;4917380;29;20236;-88
2021/03/25 09:21:13;;;;;;;3.33;1.20;;;6.20;99.90;;;;;;4904787;29;20214;-90
2021/03/25 09:24:02;;;;;;;1.90;1.40;;;6.20;99.90;;;;;;4892303;29;20248;-90
2021/03/25 09:26:49;;;;;;;2.87;1.60;;;6.30;99.90;;;;;;4886922;29;20240;-91
2021/03/25 09:29:22;;;;;;;2.10;1.13;;;6.20;99.90;;;;;;4884776;29;20293;-91
2021/03/25 09:32:36;;;;;;;2.07;1.83;;;6.20;99.90;;;;;;4887015;29;20214;-92
2021/03/25 09:35:39;;;;;;;1.70;1.10;;;6.10;99.90;;;;;;4887174;29;20217;-91
2021/03/25 09:38:25;;;;;;;1.47;1.00;;;6.10;99.90;;;;;;4878528;29;20671;-91
2021/03/25 09:41:00;;;;;;;1.43;1.00;;;6.10;99.90;;;;;;4882752;29;20221;-93
2021/03/25 09:43:44;;;;;;;2.47;1.17;;;6.00;99.90;;;;;;4884343;29;20230;-91
2021/03/25 09:46:28;;;;;;;2.20;0.97;;;6.00;99.90;;;;;;4886603;29;20234;-92
2021/03/25 09:49:27;;;;;;;1.87;1.20;;;6.00;99.90;;;;;;4882928;29;20575;-92
2021/03/25 09:52:32;;;;;;;7.40;1.67;;;6.00;99.90;;;;;;4902596;29;20218;-92
2021/03/25 09:55:26;;;;;;;4.00;2.33;;;6.00;99.90;;;;;;4902779;29;20217;-91
2021/03/25 09:57:58;;;;;;;5.83;2.03;;;6.00;99.90;;;;;;4903074;29;20220;-93
2021/03/25 10:00:57;;;;;;;8.07;1.93;;;6.10;99.90;;;;;;4904198;29;20273;-92
2021/03/25 10:04:09;;;;;;;2.77;1.30;;;6.10;99.90;;;;;;4906503;29;20359;-92
2021/03/25 10:06:55;;;;;;;0.83;0.60;;;5.90;99.90;;;;;;4907256;29;20228;-92
2021/03/25 10:09:53;;;;;;;2.33;0.80;;;5.90;99.90;;;;;;4902827;29;20202;-92
2021/03/25 10:12:47;;;;;;;1.00;0.60;;;5.90;99.90;;;;;;4890555;29;20210;-90
2021/03/25 10:15:45;;;;;;;1.00;0.50;;;5.80;99.90;;;;;;4902494;29;20213;-91
2021/03/25 10:18:48;;;;;;;3.10;1.13;;;5.80;99.90;;;;;;4902935;29;20216;-91
2021/03/25 10:21:37;;;;;;;6.30;0.90;;;5.80;99.90;;;;;;4901424;29;20209;-92
2021/03/25 10:24:18;;;;;;;1.43;0.67;;;5.80;99.90;;;;;;4888266;29;20793;-91
2021/03/25 10:26:50;;;;;;;4.20;0.87;;;5.90;99.90;;;;;;4903884;29;20218;-93
2021/03/25 10:29:29;;;;;;;1.27;0.50;;;6.00;99.90;;;;;;4903142;29;20258;-91
2021/03/25 10:32:03;;;;;;;4.23;0.50;;;6.00;99.90;;;;;;4903175;29;20646;-92
2021/03/25 10:34:37;;;;;;;0.67;0.60;;;6.00;99.90;;;;;;4902345;29;20714;-91
2021/03/25 10:37:24;;;;;;;1.33;0.50;;;5.90;99.90;;;;;;4900519;29;20197;-91
2021/03/25 10:40:05;;;;;;;2.20;0.70;;;5.90;99.90;;;;;;4900231;29;20221;-90
2021/03/25 10:42:38;;;;;;;0.90;0.40;;;5.90;99.90;;;;;;4904700;29;20258;-91
2021/03/25 10:45:20;;;;;;;2.03;0.80;;;6.00;99.90;;;;;;4901391;29;20329;-92
2021/03/25 10:47:57;;;;;;;0.70;0.53;;;5.80;99.90;;;;;;4902952;29;20213;-91
2021/03/25 10:50:52;;;;;;;1.30;0.60;;;5.70;99.90;;;;;;4903041;29;20206;-91
2021/03/25 10:53:26;;;;;;;0.87;0.50;;;5.70;99.90;;;;;;4901229;29;20650;-92
2021/03/25 10:56:09;;;;;;;0.57;0.47;;;5.70;99.90;;;;;;4904096;29;20209;-91
2021/03/25 10:58:43;;;;;;;1.23;0.57;;;5.70;99.90;;;;;;4902690;29;20206;-91
2021/03/25 11:01:21;;;;;;;1.07;0.60;;;5.60;99.90;;;;;;4904549;29;20226;-93
2021/03/25 11:03:52;;;;;;;1.17;0.63;;;5.60;99.90;;;;;;4899910;29;20245;-93
2021/03/25 11:06:27;;;;;;;0.83;0.50;;;5.60;99.90;;;;;;4903182;29;20210;-92
2021/03/25 11:09:07;;;;;;;0.87;0.40;;;5.60;99.90;;;;;;4899234;29;20209;-93
2021/03/25 11:11:44;;;;;;;1.60;0.83;;;5.60;99.90;;;;;;4902289;29;20216;-93
2021/03/25 11:14:23;;;;;;;2.10;0.80;;;5.60;99.90;;;;;;4898898;29;20338;-92
2021/03/25 11:16:57;;;;;;;1.37;0.80;;;5.60;99.90;;;;;;4903780;29;20210;-91
2021/03/25 11:19:29;;;;;;;0.83;0.70;;;5.70;99.90;;;;;;4901207;29;20209;-93
2021/03/25 11:22:02;;;;;;;1.20;0.90;;;5.70;99.90;;;;;;4905702;29;20300;-93
2021/03/25 11:24:34;;;;;;;1.43;0.70;;;5.70;99.90;;;;;;4905471;29;20232;-92
2021/03/25 11:27:13;;;;;;;1.10;0.80;;;5.80;99.90;;;;;;4918878;29;20204;-93
2021/03/25 11:29:46;;;;;;;1.87;0.70;;;5.80;99.90;;;;;;4917868;29;20205;-91
2021/03/25 11:32:25;;;;;;;1.90;1.27;;;5.80;99.90;;;;;;4908910;29;20216;-90
2021/03/25 11:34:56;;;;;;;1.07;0.97;;;5.80;99.90;;;;;;4901042;29;20221;-91
2021/03/25 11:37:34;;;;;;;3.17;0.80;;;5.80;99.90;;;;;;4903586;29;20254;-92
2021/03/25 11:40:13;;;;;;;1.73;0.90;;;5.80;99.90;;;;;;4900863;29;20229;-92
2021/03/25 11:42:47;;;;;;;0.77;0.70;;;5.90;99.90;;;;;;4900479;29;20296;-92
2021/03/25 11:45:41;;;;;;;0.80;0.50;;;5.90;99.90;;;;;;4900510;29;20597;-91
2021/03/25 11:48:20;;;;;;;0.67;0.50;;;5.90;99.90;;;;;;4900553;29;20221;-90
2021/03/25 11:50:53;;;;;;;3.87;0.60;;;5.90;99.90;;;;;;4902130;29;20213;-91
2021/03/25 11:53:39;;;;;;;1.13;0.57;;;5.90;99.90;;;;;;4888047;29;20214;-92
2021/03/25 11:56:25;;;;;;;5.13;0.67;;;5.90;99.90;;;;;;4904166;29;20232;-92
2021/03/25 11:59:05;;;;;;;1.40;0.73;;;5.90;99.90;;;;;;4903049;29;20240;-92
2021/03/25 12:01:36;;;;;;;0.90;0.70;;;5.90;99.90;;;;;;4904872;29;20672;-91
2021/03/25 12:04:26;;;;;;;0.70;0.57;;;5.80;99.90;;;;;;4906824;29;20281;-93
2021/03/25 12:07:04;;;;;;;1.03;0.57;;;5.90;99.90;;;;;;4903073;29;20209;-91
2021/03/25 12:09:37;;;;;;;0.70;0.70;;;5.90;99.90;;;;;;4896798;29;20235;-91
2021/03/25 12:12:09;;;;;;;0.90;0.70;;;6.00;99.90;;;;;;4913884;29;20239;-91
2021/03/25 12:14:42;;;;;;;4.67;0.77;;;6.00;99.90;;;;;;4912813;29;20226;-90
2021/03/25 12:17:14;;;;;;;1.97;0.73;;;5.90;99.90;;;;;;4904665;29;20297;-90
2021/03/25 12:19:53;;;;;;;7.03;0.90;;;5.90;99.90;;;;;;4903219;29;20564;-92
2021/03/25 12:22:27;;;;;;;4.00;0.83;;;5.80;99.90;;;;;;4905392;29;20220;-91
2021/03/25 12:25:03;;;;;;;2.50;0.80;;;5.90;99.90;;;;;;4903720;29;20681;-92
2021/03/25 12:27:34;;;;;;;1.07;0.90;;;6.00;99.90;;;;;;4904581;29;20565;-91
2021/03/25 12:30:13;;;;;;;6.10;1.10;;;6.00;99.90;;;;;;4903157;29;20224;-91
2021/03/25 12:32:44;;;;;;;2.77;1.10;;;5.90;99.90;;;;;;4903555;29;20615;-91
2021/03/25 12:35:18;;;;;;;4.60;1.40;;;5.80;99.90;;;;;;4901770;29;20214;-91
2021/03/25 12:37:50;;;;;;;3.23;1.30;;;5.80;99.90;;;;;;4902704;29;20332;-91
2021/03/25 12:40:25;;;;;;;2.73;1.97;;;5.80;99.90;;;;;;4901640;29;20214;-91
2021/03/25 12:42:57;;;;;;;2.40;1.73;;;5.80;99.90;;;;;;4902747;29;20252;-92
2021/03/25 12:45:33;;;;;;;1.83;1.60;;;5.80;99.90;;;;;;4902404;29;20233;-92
2021/03/25 12:48:06;;;;;;;6.83;1.90;;;5.70;99.90;;;;;;4900900;29;20677;-90
2021/03/25 12:50:38;;;;;;;2.03;1.60;;;5.70;99.90;;;;;;4902332;29;20211;-91
2021/03/25 12:53:11;;;;;;;3.30;1.90;;;5.70;99.90;;;;;;4902383;29;20220;-92
2021/03/25 12:55:43;;;;;;;1.83;1.63;;;5.80;99.90;;;;;;4902473;29;20217;-91
2021/03/25 12:58:22;;;;;;;2.57;1.87;;;5.80;99.90;;;;;;4902165;29;20273;-92
2021/03/25 13:00:57;;;;;;;2.53;1.80;;;5.80;99.90;;;;;;4908632;29;20324;-91
2021/03/25 13:03:29;;;;;;;2.23;1.20;;;5.80;99.90;;;;;;4902261;29;20213;-91
2021/03/25 13:06:01;;;;;;;1.60;0.83;;;5.80;99.90;;;;;;4903062;29;20762;-91
2021/03/25 13:08:32;;;;;;;1.20;1.00;;;5.90;99.90;;;;;;4902705;29;20224;-92
2021/03/25 13:11:22;;;;;;;1.20;1.10;;;5.80;99.90;;;;;;4904882;29;20295;-92
2021/03/25 13:13:55;;;;;;;2.40;1.67;;;5.90;99.90;;;;;;4909678;29;20225;-93
2021/03/25 13:16:29;;;;;;;1.70;1.30;;;5.90;99.90;;;;;;4907261;29;20218;-91
2021/03/25 13:19:01;;;;;;;4.67;1.63;;;5.90;99.90;;;;;;4904517;29;20205;-92
2021/03/25 13:21:33;;;;;;;2.73;2.10;;;5.90;99.90;;;;;;4903183;29;20214;-92
2021/03/25 13:24:05;;;;;;;2.07;1.87;;;6.00;99.90;;;;;;4904983;29;20314;-92
2021/03/25 13:26:37;;;;;;;2.03;1.83;;;5.90;99.90;;;;;;4901743;29;20294;-92
2021/03/25 13:29:08;;;;;;;3.53;2.00;;;5.90;99.90;;;;;;4900359;29;20248;-93
2021/03/25 13:31:42;;;;;;;3.87;2.07;;;5.90;99.90;;;;;;4904169;29;20214;-92
2021/03/25 13:34:13;;;;;;;2.00;1.80;;;5.90;99.90;;;;;;4903097;29;20221;-93
2021/03/25 13:36:45;;;;;;;3.03;2.10;;;5.90;99.90;;;;;;4903184;29;20250;-93
2021/03/25 13:39:17;;;;;;;2.53;2.07;;;5.90;99.90;;;;;;4904686;29;20221;-92
2021/03/25 13:41:49;;;;;;;6.53;1.77;;;5.90;99.90;;;;;;4914820;28;20215;-92
2021/03/25 13:44:21;;;;;;;3.40;1.80;;;5.90;99.90;;;;;;4921746;29;20245;-91
2021/03/25 13:46:54;;;;;;;2.27;1.67;;;5.80;99.90;;;;;;4901975;29;20278;-90
2021/03/25 13:49:27;;;;;;;1.97;1.77;;;5.80;99.90;;;;;;4891004;29;20226;-91
2021/03/25 13:51:58;;;;;;;3.20;1.50;;;5.80;99.90;;;;;;4900770;29;20212;-91
2021/03/25 13:54:30;;;;;;;2.37;1.60;;;5.80;99.90;;;;;;4900797;29;20243;-91
2021/03/25 13:57:02;;;;;;;2.23;1.63;;;5.80;99.90;;;;;;4898304;29;20218;-91
2021/03/25 13:59:35;;;;;;;2.00;1.70;;;5.80;99.90;;;;;;4893023;29;20278;-92